createdAt,value
2023-03-23T16:09:03.514Z,71.03
2023-03-23T16:14:10.721Z,68.60
2023-03-23T16:19:18.385Z,68.50
2023-03-23T16:24:38.776Z,63.72
2023-03-23T16:30:02.808Z,68.43
2023-03-23T16:35:16.400Z,61.85
2023-03-23T16:40:29.991Z,69.57
2023-03-23T16:45:36.714Z,76.05
2023-03-23T16:50:47.117Z,78.18
2023-03-23T16:56:23.384Z,75.05
2023-03-23T17:01:45.957Z,63.13
2023-03-23T17:07:24.213Z,60.08
2023-03-23T17:12:30.889Z,62.80
2023-03-23T17:17:38.381Z,72.28
2023-03-23T17:23:00.938Z,61.97
2023-03-23T17:28:24.141Z,57.92
2023-03-23T17:33:40.166Z,66.68
2023-03-23T17:38:50.857Z,58.45
2023-03-23T17:43:57.359Z,63.30
2023-03-23T17:49:03.376Z,66.30
2023-03-23T17:54:10.010Z,65.93
2023-03-23T17:59:16.086Z,69.10
2023-03-23T18:04:21.646Z,66.00
2023-03-23T18:09:27.912Z,60.00
2023-03-23T18:14:33.940Z,63.40
2023-03-23T18:19:40.270Z,70.80
2023-03-23T18:24:46.361Z,69.95
2023-03-23T18:29:52.310Z,74.38
2023-03-23T18:34:58.080Z,61.53
2023-03-23T18:40:07.328Z,63.05
2023-03-23T18:45:13.891Z,71.25
2023-03-23T18:50:21.175Z,63.42
2023-03-23T18:55:27.200Z,64.47
2023-03-23T19:00:34.167Z,67.90
2023-03-23T19:05:42.578Z,63.17
2023-03-23T19:10:48.190Z,70.82
2023-03-23T19:15:55.710Z,72.13
2023-03-23T19:26:10.344Z,75.00
2023-03-23T19:31:17.189Z,76.15
2023-03-23T19:36:24.444Z,67.22
2023-03-23T19:41:30.224Z,72.45
2023-03-23T19:51:41.950Z,67.13
2023-03-23T20:01:55.889Z,65.38
2023-03-23T20:07:02.811Z,72.25
2023-03-23T20:12:10.467Z,66.55
2023-03-23T20:22:21.956Z,75.23
2023-03-23T20:27:28.227Z,72.68
2023-03-23T20:32:34.768Z,61.75
2023-03-23T20:37:41.648Z,67.43
2023-03-23T20:42:47.287Z,65.63
2023-03-23T20:47:53.423Z,70.28
2023-03-23T20:53:00.588Z,76.70
2023-03-23T21:03:14.070Z,72.67
2023-03-23T21:08:20.992Z,66.47
2023-03-23T21:13:27.585Z,69.53
2023-03-23T21:18:33.429Z,103.85
2023-03-23T21:23:40.559Z,88.40
2023-03-23T21:28:47.568Z,67.75
2023-03-23T21:33:53.115Z,74.68
2023-03-23T21:44:12.853Z,71.57
2023-03-23T21:49:18.463Z,78.88
2023-03-23T21:54:24.521Z,70.85
2023-03-23T21:59:30.500Z,71.53
2023-03-23T22:04:36.170Z,81.80
2023-03-23T22:09:46.659Z,82.18
2023-03-23T22:14:53.537Z,81.68
2023-03-23T22:19:59.612Z,78.57
2023-03-23T22:25:06.126Z,88.35
2023-03-23T22:30:14.147Z,91.53
2023-03-23T22:35:20.612Z,76.05
2023-03-23T22:40:37.235Z,78.00
2023-03-23T22:45:43.788Z,82.82
2023-03-23T22:50:50.966Z,89.90
2023-03-23T22:55:59.777Z,94.25
2023-03-23T23:01:09.691Z,87.45
2023-03-23T23:11:38.307Z,103.30
2023-03-23T23:16:46.098Z,97.15
2023-03-23T23:21:52.838Z,99.75
2023-03-23T23:27:00.133Z,95.28
2023-03-23T23:32:05.523Z,99.43
2023-03-23T23:37:11.164Z,99.05
2023-03-23T23:42:17.455Z,97.57
2023-03-23T23:47:23.748Z,113.50
2023-03-23T23:52:29.717Z,128.20
2023-03-23T23:57:35.589Z,112.05
